Armstrong, Florida
Current Conditions -  °F | °C
As of 11:58 AM on Friday 21 Nov 2014 (Local Time) from KSGJ Reporting Station
Clear Clear  
Wind Chill: 67°   Ceiling: Unl
Heat Index: 67°   Visibility: 10mi
Dew Point: 50°   Wind: 14mph
Humidity: 54%   Direction: 30°NNE
Pressure: 30.36"   Gusts: NA
Location:  29.7919°N, 81.4499°W
Report Text: KSGJ 211658Z 03012KT 10SM CLR 19/10 A3036 RMK AO2 SLP279 T01940100 $
Loading
Personal Weather Stations






























Interactive Weather Map New forecast layout! Learn more

10-Day Weather Forecast

Advertisements
Track Severe Weather on mobile